Time;durP1;ratioP1;P1;durP2;ratioP2;P2;SDS_P1;SDS_P2;PMS_P1;PMS_P2;Temp;Humidity;BMP_temperature;BMP_pressure;BME280_temperature;BME280_humidity;BME280_pressure;Samples;Min_cycle;Max_cycle;Signal;HPM_P1;HPM_P2
2024/04/04 00:00:14;;;;;;;3.63;0.60;;;;;;;9.20;100.00;95815.75;1023803;29;20650;-71
2024/04/04 00:00:45;;;;;;;2.83;0.40;;;;;;;9.17;100.00;95808.41;1023740;29;20039;-72
2024/04/04 00:01:15;;;;;;;2.95;0.50;;;;;;;9.19;100.00;95812.34;1027861;28;20027;-71
2024/04/04 00:01:46;;;;;;;1.45;0.30;;;;;;;9.21;100.00;95807.63;1023861;28;20078;-72
2024/04/04 00:02:17;;;;;;;1.48;0.50;;;;;;;9.25;100.00;95809.75;1027766;28;20182;-72
2024/04/04 00:02:48;;;;;;;0.38;0.38;;;;;;;9.23;100.00;95814.47;1031554;28;20037;-72
2024/04/04 00:03:19;;;;;;;1.75;0.75;;;;;;;9.21;100.00;95801.63;1023461;29;20426;-72
2024/04/04 00:03:49;;;;;;;3.83;0.52;;;;;;;9.27;100.00;95820.78;1023227;28;20038;-72
2024/04/04 00:04:20;;;;;;;0.93;0.38;;;;;;;9.29;100.00;95808.22;1023553;29;20039;-71
2024/04/04 00:05:00;;;;;;;0.20;0.13;;;;;;;9.27;100.00;95805.06;1024102;28;20035;-71
2024/04/04 00:05:30;;;;;;;1.45;0.30;;;;;;;9.26;100.00;95812.13;1031448;28;20527;-71
2024/04/04 00:06:01;;;;;;;2.45;0.60;;;;;;;9.20;100.00;95789.56;1024755;28;20066;-73
2024/04/04 00:06:31;;;;;;;0.45;0.30;;;;;;;9.28;100.00;95809.25;1027600;28;20038;-72
2024/04/04 00:07:02;;;;;;;1.55;0.60;;;;;;;9.24;100.00;95806.34;1027521;28;20037;-72
2024/04/04 00:07:32;;;;;;;0.70;0.50;;;;;;;9.16;100.00;95802.38;1032787;28;20034;-71
2024/04/04 00:08:03;;;;;;;0.90;0.55;;;;;;;9.16;100.00;95798.97;1039444;28;20040;-71
2024/04/04 00:08:34;;;;;;;1.10;0.30;;;;;;;9.17;100.00;95806.56;1027298;28;20031;-71
2024/04/04 00:09:04;;;;;;;1.40;0.40;;;;;;;9.21;100.00;95788.53;1029427;28;20041;-71
2024/04/04 00:09:35;;;;;;;0.20;0.20;;;;;;;9.25;100.00;95804.53;1031399;28;20077;-72
2024/04/04 00:10:05;;;;;;;0.63;0.38;;;;;;;9.23;100.00;95806.63;1027374;28;20035;-71
2024/04/04 00:10:36;;;;;;;0.28;0.25;;;;;;;9.26;100.00;95791.19;1027640;28;20030;-71
2024/04/04 00:11:13;;;;;;;0.50;0.30;;;;;;;9.26;100.00;95798.25;1027089;28;20030;-72
2024/04/04 00:11:43;;;;;;;1.58;0.50;;;;;;;9.18;100.00;95794.25;1023517;29;20075;-71
2024/04/04 00:12:14;;;;;;;0.82;0.35;;;;;;;9.21;100.00;95805.03;1027325;28;20113;-72
2024/04/04 00:12:44;;;;;;;0.65;0.20;;;;;;;9.19;100.00;95808.94;1029234;28;20101;-72
2024/04/04 00:13:15;;;;;;;1.42;0.30;;;;;;;9.19;100.00;95803.72;1036718;28;20025;-71
2024/04/04 00:13:45;;;;;;;1.27;0.35;;;;;;;9.12;100.00;95797.88;1035147;28;20025;-71
2024/04/04 00:14:15;;;;;;;0.43;0.30;;;;;;;9.15;100.00;95803.44;1030589;28;20476;-72
2024/04/04 00:14:49;;;;;;;1.92;0.32;;;;;;;9.16;100.00;95804.22;1031297;28;20408;-72
2024/04/04 00:15:20;;;;;;;2.97;0.68;;;;;;;9.14;100.00;95808.91;1031579;28;20061;-72
2024/04/04 00:15:50;;;;;;;0.52;0.30;;;;;;;9.15;100.00;95811.28;1031530;28;20085;-71
2024/04/04 00:16:21;;;;;;;0.80;0.40;;;;;;;9.11;100.00;95801.56;1031807;28;20109;-71
2024/04/04 00:16:51;;;;;;;0.47;0.38;;;;;;;9.10;100.00;95813.06;1035564;28;20076;-72
2024/04/04 00:17:21;;;;;;;1.92;0.43;;;;;;;9.06;100.00;95799.69;1035721;28;20018;-71
2024/04/04 00:17:52;;;;;;;1.60;0.50;;;;;;;9.12;100.00;95808.34;1023341;28;20632;-71
2024/04/04 00:18:22;;;;;;;0.35;0.30;;;;;;;9.05;100.00;95800.72;1023165;29;20034;-72
2024/04/04 00:18:53;;;;;;;0.95;0.30;;;;;;;9.11;100.00;95818.03;1035535;28;20029;-72
2024/04/04 00:19:23;;;;;;;0.93;0.40;;;;;;;9.05;100.00;95816.41;1034684;28;20036;-71
2024/04/04 00:19:54;;;;;;;1.33;0.40;;;;;;;9.03;100.00;95808.03;1035622;28;20086;-72
2024/04/04 00:20:24;;;;;;;1.50;0.50;;;;;;;9.04;100.00;95814.06;1043408;28;20021;-72
2024/04/04 00:20:55;;;;;;;0.20;0.20;;;;;;;9.05;100.00;95811.19;1039237;28;20025;-72
2024/04/04 00:21:25;;;;;;;0.77;0.28;;;;;;;9.00;100.00;95805.94;1035438;28;20033;-72
2024/04/04 00:21:56;;;;;;;0.70;0.30;;;;;;;9.04;100.00;95812.22;1027268;28;20077;-72
2024/04/04 00:22:26;;;;;;;0.73;0.30;;;;;;;9.00;100.00;95813.78;1027404;28;20023;-71
2024/04/04 00:22:57;;;;;;;1.98;0.32;;;;;;;9.02;100.00;95831.84;1031525;28;20014;-73
2024/04/04 00:23:28;;;;;;;1.23;0.50;;;;;;;9.08;100.00;95813.31;1031766;28;20030;-71
2024/04/04 00:23:58;;;;;;;1.02;0.47;;;;;;;9.09;100.00;95814.91;1035713;28;20022;-72
2024/04/04 00:24:29;;;;;;;1.35;0.40;;;;;;;9.06;100.00;95810.16;1035061;28;20109;-71
2024/04/04 00:24:59;;;;;;;1.45;0.45;;;;;;;9.06;100.00;95815.41;1027318;28;20041;-71
2024/04/04 00:25:30;;;;;;;1.45;0.50;;;;;;;9.04;100.00;95817.47;1031378;28;20014;-71
2024/04/04 00:26:01;;;;;;;0.80;0.45;;;;;;;9.00;100.00;95813.78;1027155;28;20101;-72
2024/04/04 00:26:31;;;;;;;0.50;0.40;;;;;;;9.04;100.00;95812.22;1031511;28;20030;-71
2024/04/04 00:27:02;;;;;;;2.15;0.35;;;;;;;8.98;100.00;95802.75;1039225;28;20067;-71
2024/04/04 00:27:32;;;;;;;1.00;0.40;;;;;;;9.01;100.00;95817.97;1031312;28;20038;-71
2024/04/04 00:28:04;;;;;;;0.45;0.43;;;;;;;8.97;100.00;95822.13;1027223;28;20023;-71
2024/04/04 00:28:34;;;;;;;0.35;0.35;;;;;;;8.95;100.00;95808.50;1027180;28;20487;-73
2024/04/04 00:29:04;;;;;;;1.05;0.43;;;;;;;8.90;100.00;95818.94;1026986;28;20028;-71
2024/04/04 00:29:35;;;;;;;1.42;0.40;;;;;;;8.86;100.00;95813.41;1031671;28;20583;-72
2024/04/04 00:30:06;;;;;;;1.73;0.50;;;;;;;8.92;100.00;95816.84;1031525;28;20034;-73
2024/04/04 00:30:36;;;;;;;1.20;0.50;;;;;;;8.99;100.00;95825.28;1027247;28;20023;-73
2024/04/04 00:31:08;;;;;;;3.55;0.60;;;;;;;9.00;100.00;95826.06;1027534;28;20019;-71
2024/04/04 00:31:38;;;;;;;1.25;0.50;;;;;;;8.96;100.00;95820.56;1031467;28;20224;-71
2024/04/04 00:32:09;;;;;;;0.98;0.40;;;;;;;8.90;100.00;95821.56;1035690;28;20573;-72
2024/04/04 00:32:39;;;;;;;1.45;0.45;;;;;;;8.91;100.00;95820.50;1039450;28;20018;-72
2024/04/04 00:33:10;;;;;;;3.28;0.32;;;;;;;8.95;100.00;95803.25;1039336;28;20021;-72
2024/04/04 00:33:40;;;;;;;0.65;0.22;;;;;;;8.92;100.00;95809.81;1039515;28;20014;-71
2024/04/04 00:34:11;;;;;;;0.60;0.52;;;;;;;8.96;100.00;95818.72;1035498;28;20488;-72
2024/04/04 00:34:41;;;;;;;0.95;0.40;;;;;;;8.95;100.00;95818.97;1027156;28;20254;-72
2024/04/04 00:35:12;;;;;;;1.92;0.45;;;;;;;8.95;100.00;95824.19;1023388;28;20038;-72
2024/04/04 00:35:42;;;;;;;0.55;0.38;;;;;;;8.92;100.00;95814.22;1023507;28;20027;-71
2024/04/04 00:36:13;;;;;;;0.45;0.35;;;;;;;8.89;100.00;95826.00;1027447;28;20077;-71
2024/04/04 00:36:43;;;;;;;0.30;0.30;;;;;;;8.92;100.00;95825.50;1031466;28;20718;-72
2024/04/04 00:37:14;;;;;;;1.33;0.50;;;;;;;8.94;100.00;95820.00;1031305;28;20030;-72
2024/04/04 00:37:47;;;;;;;0.85;0.30;;;;;;;8.95;100.00;95825.00;1035555;28;20032;-72
2024/04/04 00:38:17;;;;;;;0.55;0.30;;;;;;;8.97;100.00;95819.50;1027787;28;20060;-71
2024/04/04 00:38:48;;;;;;;0.55;0.35;;;;;;;9.00;100.00;95818.22;1031749;28;20030;-71
2024/04/04 00:39:18;;;;;;;1.38;0.60;;;;;;;8.96;100.00;95810.09;1030879;28;20393;-72
2024/04/04 00:39:49;;;;;;;0.70;0.30;;;;;;;9.04;100.00;95814.84;1031542;28;20074;-71
2024/04/04 00:40:19;;;;;;;0.43;0.30;;;;;;;9.07;100.00;95816.19;1035393;28;20173;-72
2024/04/04 00:40:50;;;;;;;0.77;0.30;;;;;;;9.07;100.00;95816.19;1035317;28;20037;-72
2024/04/04 00:41:20;;;;;;;1.63;0.40;;;;;;;9.10;100.00;95811.22;1035182;28;20030;-72
2024/04/04 00:41:50;;;;;;;1.83;0.50;;;;;;;9.12;100.00;95813.59;1043646;28;20045;-72
2024/04/04 00:42:21;;;;;;;0.50;0.30;;;;;;;9.07;100.00;95805.72;1039482;28;20696;-71
2024/04/04 00:42:51;;;;;;;1.05;0.43;;;;;;;9.12;100.00;95811.78;1035391;28;20530;-71
2024/04/04 00:43:22;;;;;;;0.47;0.32;;;;;;;9.10;100.00;95823.53;1035381;28;20096;-72
2024/04/04 00:43:52;;;;;;;0.45;0.30;;;;;;;9.10;100.00;95813.06;1030352;28;20022;-71
2024/04/04 00:44:23;;;;;;;0.60;0.40;;;;;;;9.10;100.00;95818.31;1031319;28;20514;-72
2024/04/04 00:44:53;;;;;;;0.75;0.43;;;;;;;9.01;100.00;95791.78;1031412;28;20123;-72
2024/04/04 00:45:24;;;;;;;1.60;0.45;;;;;;;9.11;100.00;95810.19;1019057;29;20071;-72
2024/04/04 00:45:55;;;;;;;1.00;0.35;;;;;;;9.10;100.00;95816.47;1019509;29;20027;-71
2024/04/04 00:46:25;;;;;;;1.38;0.40;;;;;;;9.14;100.00;95809.69;1031129;28;20061;-73
2024/04/04 00:46:55;;;;;;;1.15;0.30;;;;;;;9.15;100.00;95819.13;1031476;28;20022;-72
2024/04/04 00:47:26;;;;;;;1.92;0.50;;;;;;;9.14;100.00;95812.31;1031511;28;20022;-72
2024/04/04 00:47:57;;;;;;;3.15;0.50;;;;;;;9.09;100.00;95809.66;1023180;29;20123;-71
2024/04/04 00:48:28;;;;;;;0.20;0.20;;;;;;;9.09;100.00;95814.91;1026982;28;20232;-72
2024/04/04 00:48:59;;;;;;;0.60;0.40;;;;;;;9.03;100.00;95804.66;1034713;28;20696;-72
2024/04/04 00:49:29;;;;;;;0.90;0.40;;;;;;;9.09;100.00;95807.06;1030996;28;20034;-74
2024/04/04 00:50:00;;;;;;;1.10;0.40;;;;;;;9.14;100.00;95817.53;1027272;28;20022;-72
2024/04/04 00:50:31;;;;;;;1.55;0.40;;;;;;;9.18;100.00;95813.38;1035251;28;20042;-72
2024/04/04 00:51:01;;;;;;;1.27;0.50;;;;;;;9.14;100.00;95814.94;1031459;28;20030;-72
2024/04/04 00:51:31;;;;;;;2.38;0.50;;;;;;;9.12;100.00;95803.94;1026937;28;20027;-71
2024/04/04 00:52:08;;;;;;;0.65;0.32;;;;;;;9.00;100.00;95795.47;1027371;28;20033;-71
2024/04/04 00:52:39;;;;;;;0.20;0.20;;;;;;;9.05;100.00;95805.94;1027434;28;20044;-72
2024/04/04 00:53:09;;;;;;;1.60;0.45;;;;;;;9.10;100.00;95819.09;1028011;28;20038;-71
2024/04/04 00:53:40;;;;;;;2.28;0.70;;;;;;;9.08;100.00;95810.69;1035132;28;20033;-71
2024/04/04 00:54:10;;;;;;;1.33;0.75;;;;;;;9.09;100.00;95820.13;1030693;28;20770;-72
2024/04/04 00:54:41;;;;;;;5.05;0.73;;;;;;;9.04;100.00;95803.59;1031249;28;20039;-72
2024/04/04 00:55:12;;;;;;;1.33;0.30;;;;;;;9.13;100.00;95821.22;1032059;28;20034;-72
2024/04/04 00:55:44;;;;;;;2.80;0.45;;;;;;;9.14;100.00;95809.69;1027111;28;20546;-71
2024/04/04 00:56:14;;;;;;;0.98;0.35;;;;;;;9.13;100.00;95810.75;1031256;28;20041;-72
2024/04/04 00:56:46;;;;;;;3.13;0.50;;;;;;;9.18;100.00;95810.75;1019248;28;20039;-71
2024/04/04 00:57:17;;;;;;;2.33;0.40;;;;;;;9.17;100.00;95811.81;1021814;28;20109;-71
2024/04/04 00:57:47;;;;;;;2.22;0.43;;;;;;;9.20;100.00;95815.75;1031115;28;20038;-71
2024/04/04 00:58:17;;;;;;;2.35;0.40;;;;;;;9.15;100.00;95807.84;1031364;28;20033;-72
2024/04/04 00:58:48;;;;;;;1.33;0.35;;;;;;;9.07;100.00;95800.47;1027845;28;20038;-71
2024/04/04 00:59:18;;;;;;;1.67;0.45;;;;;;;9.16;100.00;95810.25;1026725;28;20077;-71
2024/04/04 00:59:49;;;;;;;3.10;0.50;;;;;;;9.21;100.00;95794.53;1035240;28;20041;-71
2024/04/04 01:00:23;;;;;;;1.30;0.50;;;;;;;9.18;100.00;95802.13;1039238;28;20081;-72
2024/04/04 01:00:54;;;;;;;2.22;0.30;;;;;;;9.18;100.00;95808.13;1031070;28;20030;-72
2024/04/04 01:01:24;;;;;;;1.23;0.40;;;;;;;9.19;100.00;95804.50;1027665;28;20512;-72
2024/04/04 01:01:54;;;;;;;0.22;0.20;;;;;;;9.23;100.00;95809.25;1035368;28;20018;-72
2024/04/04 01:02:25;;;;;;;1.40;0.40;;;;;;;9.23;100.00;95804.00;1031775;28;20053;-72
2024/04/04 01:02:55;;;;;;;1.05;0.40;;;;;;;9.27;100.00;95812.94;1031320;28;20034;-72
2024/04/04 01:03:26;;;;;;;2.67;0.35;;;;;;;9.20;100.00;95800.84;1027064;28;20031;-72
2024/04/04 01:03:56;;;;;;;0.22;0.20;;;;;;;9.25;100.00;95812.38;1026269;28;20041;-72
2024/04/04 01:04:27;;;;;;;1.33;0.30;;;;;;;9.24;100.00;95810.81;1031037;28;20396;-72
2024/04/04 01:04:57;;;;;;;2.58;0.60;;;;;;;9.19;100.00;95809.75;1035468;28;20217;-72
2024/04/04 01:05:28;;;;;;;1.13;0.40;;;;;;;9.23;100.00;95812.63;1035462;28;20022;-72
2024/04/04 01:05:58;;;;;;;1.13;0.20;;;;;;;9.19;100.00;95814.19;1031084;28;20026;-72
2024/04/04 01:06:29;;;;;;;6.18;0.63;;;;;;;9.18;100.00;95810.75;1031288;28;20857;-71
2024/04/04 01:07:00;;;;;;;1.75;0.50;;;;;;;9.21;100.00;95818.13;1027276;28;20596;-72
2024/04/04 01:07:30;;;;;;;1.25;0.30;;;;;;;9.20;100.00;95827.00;1023082;28;20023;-71
2024/04/04 01:08:00;;;;;;;2.38;0.50;;;;;;;9.18;100.00;95818.63;1027152;28;20023;-71
2024/04/04 01:08:31;;;;;;;0.75;0.40;;;;;;;9.23;100.00;95811.84;1031196;28;20026;-70
2024/04/04 01:09:02;;;;;;;1.05;0.40;;;;;;;9.25;100.00;95817.63;1029688;28;20038;-72
2024/04/04 01:09:32;;;;;;;0.85;0.55;;;;;;;9.26;100.00;95819.22;1030988;28;20033;-72
2024/04/04 01:10:11;;;;;;;0.30;0.30;;;;;;;9.30;100.00;95799.31;1031180;28;20030;-72
2024/04/04 01:10:42;;;;;;;3.17;0.65;;;;;;;9.28;100.00;95814.50;1027018;28;20031;-71
2024/04/04 01:11:14;;;;;;;1.50;0.30;;;;;;;9.26;100.00;95821.81;1024274;28;20027;-72
2024/04/04 01:11:45;;;;;;;2.95;0.32;;;;;;;9.29;100.00;95816.88;1027276;28;20063;-71
2024/04/04 01:12:15;;;;;;;0.70;0.40;;;;;;;9.32;100.00;95805.91;1023703;28;20053;-71
2024/04/04 01:12:46;;;;;;;1.20;0.70;;;;;;;9.24;100.00;95810.81;1026639;28;20042;-73
2024/04/04 01:13:16;;;;;;;0.70;0.40;;;;;;;9.15;100.00;95798.19;1027370;28;20035;-71
2024/04/04 01:13:47;;;;;;;3.28;0.45;;;;;;;9.16;100.00;95807.63;1023093;28;20063;-72
2024/04/04 01:14:17;;;;;;;1.23;0.38;;;;;;;9.21;100.00;95820.72;1029237;28;20504;-73
2024/04/04 01:14:47;;;;;;;0.82;0.30;;;;;;;9.19;100.00;95819.44;1031041;28;20034;-71
2024/04/04 01:15:18;;;;;;;2.15;0.40;;;;;;;9.14;100.00;95828.00;1031130;28;20026;-71
2024/04/04 01:15:48;;;;;;;2.75;0.30;;;;;;;9.11;100.00;95823.28;1027171;28;20487;-71
2024/04/04 01:16:19;;;;;;;3.13;0.40;;;;;;;9.12;100.00;95826.69;1027212;28;20031;-71
2024/04/04 01:16:49;;;;;;;1.30;0.30;;;;;;;9.11;100.00;95827.72;1030897;28;20035;-72
2024/04/04 01:17:20;;;;;;;2.05;0.70;;;;;;;9.08;100.00;95829.00;1031467;28;20037;-71
2024/04/04 01:17:51;;;;;;;3.05;0.60;;;;;;;9.06;100.00;95823.25;1030490;28;20126;-71
2024/04/04 01:18:21;;;;;;;1.42;0.50;;;;;;;9.03;100.00;95822.97;1031140;28;20181;-71
2024/04/04 01:18:52;;;;;;;2.63;0.45;;;;;;;8.99;100.00;95827.91;1035178;28;20026;-72
2024/04/04 01:19:22;;;;;;;1.95;0.60;;;;;;;9.01;100.00;95846.75;1030544;28;20026;-71
2024/04/04 01:19:53;;;;;;;0.70;0.40;;;;;;;9.03;100.00;95836.06;1031128;28;20134;-73
2024/04/04 01:20:24;;;;;;;0.75;0.40;;;;;;;9.05;100.00;95832.13;1027069;28;20038;-71
2024/04/04 01:20:55;;;;;;;1.60;0.60;;;;;;;9.09;100.00;95830.59;1022141;29;20023;-72
2024/04/04 01:21:25;;;;;;;1.00;0.40;;;;;;;9.08;100.00;95830.84;1019478;29;20504;-71
2024/04/04 01:21:56;;;;;;;2.05;0.47;;;;;;;9.04;100.00;95833.16;1023675;28;20400;-71
2024/04/04 01:22:26;;;;;;;2.35;0.60;;;;;;;9.03;100.00;95836.84;1027196;28;20577;-72
2024/04/04 01:22:57;;;;;;;0.30;0.20;;;;;;;9.04;100.00;95838.41;1027059;28;20082;-71
2024/04/04 01:23:27;;;;;;;1.80;0.30;;;;;;;9.05;100.00;95839.97;1028473;28;20062;-72
2024/04/04 01:23:57;;;;;;;2.75;0.22;;;;;;;9.06;100.00;95835.56;1028232;28;20030;-72
2024/04/04 01:24:28;;;;;;;0.30;0.30;;;;;;;9.06;100.00;95838.19;1032346;28;20036;-72
2024/04/04 01:24:58;;;;;;;0.47;0.28;;;;;;;9.08;100.00;95836.06;1039565;28;20021;-73
2024/04/04 01:25:29;;;;;;;1.15;0.38;;;;;;;9.10;100.00;95831.41;1040100;28;20033;-71
2024/04/04 01:25:59;;;;;;;2.83;0.32;;;;;;;9.05;100.00;95832.13;1034925;28;20029;-71
2024/04/04 01:26:30;;;;;;;2.40;0.30;;;;;;;9.00;100.00;95834.72;1031592;28;20522;-73
2024/04/04 01:27:00;;;;;;;1.92;0.50;;;;;;;9.04;100.00;95835.78;1027566;28;20440;-71
2024/04/04 01:27:30;;;;;;;2.25;0.43;;;;;;;9.03;100.00;95838.66;1031511;28;20049;-71
2024/04/04 01:28:01;;;;;;;0.40;0.40;;;;;;;9.09;100.00;95837.69;1031554;28;20026;-71
2024/04/04 01:28:31;;;;;;;1.73;0.40;;;;;;;9.15;100.00;95836.66;1027241;28;20027;-72
2024/04/04 01:29:02;;;;;;;0.57;0.30;;;;;;;9.12;100.00;95835.34;1026504;28;20035;-71
2024/04/04 01:29:32;;;;;;;2.05;0.63;;;;;;;9.08;100.00;95833.47;1024789;28;20030;-71
2024/04/04 01:30:04;;;;;;;1.45;0.40;;;;;;;8.98;100.00;95829.72;1027148;28;20027;-73
2024/04/04 01:30:35;;;;;;;1.85;0.45;;;;;;;9.02;100.00;95831.84;1028042;28;20033;-72
2024/04/04 01:31:05;;;;;;;1.63;0.20;;;;;;;8.97;100.00;95832.59;1028408;28;20038;-72
2024/04/04 01:31:35;;;;;;;1.20;0.45;;;;;;;9.01;100.00;95836.28;1024195;28;20038;-72
2024/04/04 01:32:06;;;;;;;1.65;0.30;;;;;;;9.03;100.00;95841.28;1028417;28;20097;-71
2024/04/04 01:32:36;;;;;;;2.30;0.38;;;;;;;9.00;100.00;95839.94;1027899;28;20031;-72
2024/04/04 01:33:07;;;;;;;1.52;0.40;;;;;;;8.98;100.00;95842.00;1032223;28;20033;-71
2024/04/04 01:33:37;;;;;;;0.52;0.43;;;;;;;9.00;100.00;95844.41;1031021;28;20030;-71
2024/04/04 01:34:08;;;;;;;7.20;0.50;;;;;;;8.95;100.00;95840.72;1027067;28;20031;-71
2024/04/04 01:34:38;;;;;;;0.75;0.22;;;;;;;8.93;100.00;95839.38;1043241;28;20044;-72
2024/04/04 01:35:09;;;;;;;2.20;0.30;;;;;;;8.86;100.00;95838.78;1035287;28;20058;-72
2024/04/04 01:35:39;;;;;;;2.30;0.35;;;;;;;8.89;100.00;95846.94;1026976;28;20027;-71
2024/04/04 01:36:10;;;;;;;1.45;0.40;;;;;;;8.87;100.00;95846.38;1026938;28;20037;-71
2024/04/04 01:36:40;;;;;;;1.00;0.30;;;;;;;8.91;100.00;95850.06;1023114;28;20038;-73
2024/04/04 01:37:11;;;;;;;2.15;0.40;;;;;;;8.89;100.00;95846.16;1027174;28;20444;-71
2024/04/04 01:37:41;;;;;;;1.35;0.25;;;;;;;8.93;100.00;95855.06;1031043;28;20405;-72
2024/04/04 01:38:12;;;;;;;0.70;0.22;;;;;;;8.93;100.00;95855.84;1024046;28;20024;-73
2024/04/04 01:38:42;;;;;;;0.75;0.40;;;;;;;8.97;100.00;95848.28;1031110;28;20033;-71
2024/04/04 01:39:13;;;;;;;0.55;0.30;;;;;;;8.95;100.00;95847.75;1030649;28;20019;-71
2024/04/04 01:39:43;;;;;;;0.70;0.40;;;;;;;8.91;100.00;95846.66;1030878;28;20085;-71
2024/04/04 01:40:14;;;;;;;1.65;0.30;;;;;;;8.97;100.00;95858.75;1031223;28;20030;-72
2024/04/04 01:40:44;;;;;;;0.20;0.20;;;;;;;8.95;100.00;95850.38;1035160;28;20478;-72
2024/04/04 01:41:16;;;;;;;2.63;0.50;;;;;;;8.96;100.00;95857.19;1031147;28;20390;-72
2024/04/04 01:41:46;;;;;;;0.85;0.30;;;;;;;8.98;100.00;95852.47;1027204;28;20019;-72
2024/04/04 01:42:17;;;;;;;1.02;0.30;;;;;;;9.00;100.00;95857.50;1031040;28;20030;-72
2024/04/04 01:42:47;;;;;;;2.28;1.02;;;;;;;8.98;100.00;95850.66;1027385;28;20026;-71
2024/04/04 01:43:18;;;;;;;0.70;0.30;;;;;;;8.96;100.00;95839.66;1023179;28;20028;-71
2024/04/04 01:43:48;;;;;;;1.00;0.40;;;;;;;9.06;100.00;95857.28;1022595;29;20019;-73
2024/04/04 01:44:19;;;;;;;0.45;0.25;;;;;;;9.05;100.00;95855.69;1019188;29;20024;-72
2024/04/04 01:44:49;;;;;;;0.45;0.20;;;;;;;9.05;100.00;95857.50;1024936;28;20485;-70
2024/04/04 01:45:19;;;;;;;0.90;0.40;;;;;;;8.98;100.00;95852.47;1035064;28;20026;-72
2024/04/04 01:45:50;;;;;;;1.65;0.20;;;;;;;9.02;100.00;95845.75;1031232;28;20022;-72
2024/04/04 01:46:20;;;;;;;0.52;0.30;;;;;;;9.02;100.00;95843.13;1026861;28;20030;-71
2024/04/04 01:46:51;;;;;;;1.00;0.50;;;;;;;9.09;100.00;95867.25;1023146;29;20026;-72
2024/04/04 01:47:21;;;;;;;0.30;0.30;;;;;;;9.08;100.00;95849.16;1027151;28;20029;-72
2024/04/04 01:47:52;;;;;;;2.30;0.60;;;;;;;9.13;100.00;95863.09;1031005;28;20049;-71
2024/04/04 01:48:22;;;;;;;0.30;0.30;;;;;;;9.11;100.00;95859.13;1030819;28;20582;-72
2024/04/04 01:48:53;;;;;;;1.45;0.40;;;;;;;9.05;100.00;95847.81;1031325;28;20018;-71
2024/04/04 01:49:23;;;;;;;1.75;0.40;;;;;;;9.11;100.00;95861.75;1022429;28;20023;-72
2024/04/04 01:49:54;;;;;;;0.35;0.20;;;;;;;9.11;100.00;95859.91;1022788;29;20599;-71
2024/04/04 01:50:24;;;;;;;0.88;0.40;;;;;;;9.12;100.00;95858.91;1023161;28;20027;-72
2024/04/04 01:50:55;;;;;;;2.30;0.60;;;;;;;9.13;100.00;95857.84;1019416;28;20032;-71
2024/04/04 01:51:25;;;;;;;2.80;0.40;;;;;;;9.16;100.00;95857.34;1031176;28;20534;-71
2024/04/04 01:51:55;;;;;;;1.15;0.40;;;;;;;9.06;100.00;95844.19;1034966;28;20380;-72
2024/04/04 01:52:26;;;;;;;2.00;0.40;;;;;;;9.17;100.00;95853.69;1031132;28;20027;-72
2024/04/04 01:52:56;;;;;;;0.63;0.30;;;;;;;9.17;100.00;95847.66;1035365;28;20034;-73
2024/04/04 01:53:27;;;;;;;1.17;0.40;;;;;;;9.24;100.00;95852.69;1034932;28;20541;-71
2024/04/04 01:53:59;;;;;;;1.35;0.47;;;;;;;9.20;100.00;95849.78;1031243;28;20099;-71
2024/04/04 01:54:29;;;;;;;1.38;0.43;;;;;;;9.20;100.00;95847.97;1039372;28;20026;-72
2024/04/04 01:55:00;;;;;;;0.90;0.45;;;;;;;9.12;100.00;95830.13;1041581;28;20029;-72
2024/04/04 01:55:30;;;;;;;2.30;0.40;;;;;;;9.17;100.00;95843.22;1027472;28;20035;-71
2024/04/04 01:56:01;;;;;;;1.02;0.30;;;;;;;9.15;100.00;95844.50;1027052;28;20034;-71
2024/04/04 01:56:31;;;;;;;0.85;0.52;;;;;;;9.15;100.00;95855.78;1026875;28;20701;-72
2024/04/04 01:57:02;;;;;;;0.80;0.30;;;;;;;9.11;100.00;95844.22;1023141;28;20027;-72
2024/04/04 01:57:32;;;;;;;0.43;0.30;;;;;;;9.17;100.00;95845.06;1027164;28;20033;-71
2024/04/04 01:58:03;;;;;;;1.80;0.40;;;;;;;9.18;100.00;95847.41;1027063;28;20030;-71
2024/04/04 01:58:33;;;;;;;1.63;0.50;;;;;;;9.13;100.00;95830.91;1027096;28;20377;-73
2024/04/04 01:59:04;;;;;;;1.95;0.43;;;;;;;9.14;100.00;95843.72;1025205;28;20042;-71
2024/04/04 01:59:34;;;;;;;1.13;0.38;;;;;;;9.18;100.00;95850.03;1019291;29;20122;-71
2024/04/04 02:00:06;;;;;;;1.20;0.50;;;;;;;9.14;100.00;95843.72;1019194;29;20385;-71
2024/04/04 02:00:37;;;;;;;1.38;0.55;;;;;;;9.19;100.00;95845.59;1025053;28;20444;-71
2024/04/04 02:01:07;;;;;;;1.33;0.40;;;;;;;9.19;100.00;95846.38;1027297;28;20074;-72
2024/04/04 02:01:38;;;;;;;1.67;0.77;;;;;;;9.15;100.00;95847.94;1030977;28;20080;-72
2024/04/04 02:02:08;;;;;;;0.50;0.20;;;;;;;9.21;100.00;95848.75;1019693;28;20035;-70
2024/04/04 02:02:39;;;;;;;1.88;0.40;;;;;;;9.19;100.00;95854.25;1026887;28;20512;-71
2024/04/04 02:03:11;;;;;;;2.67;0.50;;;;;;;9.20;100.00;95853.19;1027046;28;20484;-72
2024/04/04 02:03:41;;;;;;;1.40;0.43;;;;;;;9.25;100.00;95846.41;1027628;28;20081;-72
2024/04/04 02:04:12;;;;;;;2.97;0.40;;;;;;;9.27;100.00;95846.97;1035265;28;20033;-72
2024/04/04 02:04:42;;;;;;;0.52;0.30;;;;;;;9.29;100.00;95852.72;1035246;28;20828;-72
2024/04/04 02:05:13;;;;;;;0.80;0.30;;;;;;;9.25;100.00;95849.03;1039426;28;20017;-69
2024/04/04 02:05:43;;;;;;;1.02;0.45;;;;;;;9.20;100.00;95837.47;1039198;28;20037;-72
2024/04/04 02:06:14;;;;;;;0.88;0.45;;;;;;;9.21;100.00;95844.28;1039053;28;20049;-70
2024/04/04 02:06:44;;;;;;;2.17;0.50;;;;;;;9.20;100.00;95849.78;1043270;28;20029;-70
2024/04/04 02:07:15;;;;;;;1.30;0.43;;;;;;;9.19;100.00;95837.75;1039133;28;20025;-70
2024/04/04 02:07:45;;;;;;;1.05;0.57;;;;;;;9.24;100.00;95843.00;1035281;28;20502;-72
2024/04/04 02:08:15;;;;;;;0.50;0.28;;;;;;;9.22;100.00;95839.84;1031038;28;20430;-70
2024/04/04 02:08:46;;;;;;;3.65;0.40;;;;;;;9.23;100.00;95848.50;1026997;28;20027;-72
2024/04/04 02:09:16;;;;;;;0.57;0.30;;;;;;;9.27;100.00;95849.59;1034455;28;20026;-71
2024/04/04 02:09:47;;;;;;;1.10;0.40;;;;;;;9.32;100.00;95850.41;1039291;28;20029;-70
2024/04/04 02:10:17;;;;;;;3.53;0.40;;;;;;;9.26;100.00;95845.38;1035177;28;20149;-70
2024/04/04 02:10:48;;;;;;;1.50;0.40;;;;;;;9.28;100.00;95843.28;1034753;28;20034;-69
2024/04/04 02:11:19;;;;;;;3.08;0.70;;;;;;;9.21;100.00;95833.81;1027038;28;20384;-70
2024/04/04 02:11:49;;;;;;;0.30;0.30;;;;;;;9.27;100.00;95847.75;1027539;28;20077;-70
2024/04/04 02:12:20;;;;;;;1.15;0.40;;;;;;;9.25;100.00;95841.97;1035108;28;20526;-69
2024/04/04 02:12:50;;;;;;;1.38;0.68;;;;;;;9.21;100.00;95846.91;1027022;28;20027;-70
2024/04/04 02:13:21;;;;;;;1.27;0.43;;;;;;;9.16;100.00;95830.41;1027326;28;20046;-70
2024/04/04 02:13:52;;;;;;;0.65;0.28;;;;;;;9.17;100.00;95837.97;1027126;28;20090;-70
2024/04/04 02:14:22;;;;;;;1.13;0.43;;;;;;;9.18;100.00;95847.41;1023340;28;20035;-70
2024/04/04 02:14:53;;;;;;;3.42;0.52;;;;;;;9.21;100.00;95848.75;1027318;28;20555;-69
2024/04/04 02:15:23;;;;;;;1.23;0.43;;;;;;;9.18;100.00;95850.03;1031188;28;20034;-70
2024/04/04 02:15:54;;;;;;;1.17;0.50;;;;;;;9.17;100.00;95850.28;1031079;28;20038;-69
2024/04/04 02:16:24;;;;;;;1.55;0.60;;;;;;;9.09;100.00;95843.69;1031178;28;20027;-70
2024/04/04 02:16:55;;;;;;;0.98;0.40;;;;;;;9.07;100.00;95843.16;1030973;28;20590;-71
2024/04/04 02:17:25;;;;;;;0.90;0.50;;;;;;;9.13;100.00;95857.84;1022969;28;20027;-70
2024/04/04 02:17:56;;;;;;;3.88;0.60;;;;;;;9.10;100.00;95857.56;1030850;28;20037;-70
2024/04/04 02:18:26;;;;;;;0.25;0.20;;;;;;;9.05;100.00;95855.69;1030963;28;20631;-70
2024/04/04 02:18:57;;;;;;;1.85;0.68;;;;;;;9.05;100.00;95853.06;1026600;28;20529;-67
2024/04/04 02:19:27;;;;;;;0.95;0.28;;;;;;;9.09;100.00;95863.84;1026751;28;20042;-72
2024/04/04 02:19:58;;;;;;;2.40;0.38;;;;;;;9.06;100.00;95857.28;1023226;28;20061;-71
2024/04/04 02:20:28;;;;;;;2.05;0.40;;;;;;;9.08;100.00;95855.19;1027257;28;20038;-71
2024/04/04 02:20:59;;;;;;;1.45;0.30;;;;;;;9.08;100.00;95854.41;1030953;28;20038;-70
2024/04/04 02:21:29;;;;;;;1.17;0.47;;;;;;;9.12;100.00;95864.13;1030970;28;20034;-70
2024/04/04 02:22:00;;;;;;;2.33;0.40;;;;;;;9.02;100.00;95850.16;1031010;28;20062;-70
2024/04/04 02:22:30;;;;;;;0.93;0.30;;;;;;;9.10;100.00;95863.59;1026451;28;20037;-70
2024/04/04 02:23:01;;;;;;;0.80;0.30;;;;;;;9.04;100.00;95854.13;1026115;28;20121;-69
2024/04/04 02:23:31;;;;;;;1.15;0.50;;;;;;;9.08;100.00;95854.41;1021782;29;20063;-69
2024/04/04 02:24:02;;;;;;;4.32;0.45;;;;;;;9.10;100.00;95855.75;1023484;28;20564;-69
2024/04/04 02:24:32;;;;;;;5.55;0.40;;;;;;;9.11;100.00;95870.41;1035196;28;20467;-70